createdAt,value
2017-03-28T00:00:33.558Z,0
2017-03-28T00:01:43.484Z,0
2017-03-28T00:02:53.423Z,0
2017-03-28T00:04:02.741Z,0
2017-03-28T00:05:12.985Z,0
2017-03-28T00:06:22.925Z,0
2017-03-28T00:07:32.860Z,0
2017-03-28T00:08:43.102Z,0
2017-03-28T00:09:53.343Z,0
2017-03-28T00:11:02.961Z,0
2017-03-28T00:12:12.588Z,0
2017-03-28T00:13:22.830Z,0
2017-03-28T00:14:32.134Z,0
2017-03-28T00:15:42.055Z,0
2017-03-28T00:16:52.298Z,0
2017-03-28T00:18:02.545Z,0
2017-03-28T00:19:12.477Z,0
2017-03-28T00:20:22.407Z,0
2017-03-28T00:21:32.336Z,0
2017-03-28T00:22:42.587Z,0
2017-03-28T00:23:52.837Z,0
2017-03-28T00:25:03.091Z,0
2017-03-28T00:26:13.021Z,0
2017-03-28T00:27:22.639Z,0
2017-03-28T00:28:32.566Z,0
2017-03-28T00:29:42.497Z,0
2017-03-28T00:30:52.737Z,0
2017-03-28T00:32:02.980Z,0
2017-03-28T00:33:13.231Z,0
2017-03-28T00:34:23.477Z,0
2017-03-28T00:35:33.725Z,0
2017-03-28T00:36:43.655Z,0
2017-03-28T00:37:53.902Z,0
2017-03-28T00:39:04.154Z,0
2017-03-28T00:40:14.400Z,0
2017-03-28T00:41:24.641Z,0
2017-03-28T00:42:34.891Z,0
2017-03-28T00:43:45.135Z,0
2017-03-28T00:44:54.758Z,0
2017-03-28T00:46:05.008Z,0
2017-03-28T00:47:15.248Z,0
2017-03-28T00:48:25.498Z,0
2017-03-28T00:49:34.805Z,0
2017-03-28T00:50:45.045Z,0
2017-03-28T00:51:55.290Z,0
2017-03-28T00:53:05.528Z,0
2017-03-28T00:54:15.150Z,0
2017-03-28T00:55:25.074Z,0
2017-03-28T00:56:34.999Z,0
2017-03-28T00:57:45.237Z,0
2017-03-28T00:58:55.168Z,0
2017-03-28T01:00:05.102Z,0
2017-03-28T01:01:15.339Z,0
2017-03-28T01:02:25.579Z,0
2017-03-28T01:03:35.196Z,0
2017-03-28T01:04:45.446Z,0
2017-03-28T01:05:55.374Z,0
2017-03-28T01:07:05.297Z,0
2017-03-28T01:08:15.539Z,0
2017-03-28T01:09:25.475Z,0
2017-03-28T01:10:35.098Z,0
2017-03-28T01:11:45.348Z,0
2017-03-28T01:12:55.591Z,0
2017-03-28T01:14:05.531Z,0
2017-03-28T01:15:15.780Z,0
2017-03-28T01:16:26.023Z,0
2017-03-28T01:17:36.269Z,0
2017-03-28T01:18:46.197Z,0
2017-03-28T01:19:56.137Z,0
2017-03-28T01:21:05.759Z,0
2017-03-28T01:22:15.697Z,0
2017-03-28T01:23:25.629Z,0
2017-03-28T01:24:34.625Z,0
2017-03-28T01:25:44.567Z,0
2017-03-28T01:26:54.818Z,0
2017-03-28T01:28:05.063Z,0
2017-03-28T01:29:14.989Z,0
2017-03-28T01:30:24.921Z,0
2017-03-28T01:31:34.864Z,0
2017-03-28T01:32:44.801Z,0
2017-03-28T01:33:54.740Z,0
2017-03-28T01:35:04.674Z,0
2017-03-28T01:36:14.598Z,0
2017-03-28T01:37:24.848Z,0
2017-03-28T01:38:34.777Z,0
2017-03-28T01:39:44.712Z,0
2017-03-28T01:40:54.641Z,0
2017-03-28T01:42:04.575Z,0
2017-03-28T01:43:14.505Z,0
2017-03-28T01:44:24.756Z,0
2017-03-28T01:45:34.696Z,0
2017-03-28T01:46:44.633Z,0
2017-03-28T01:47:54.884Z,0
2017-03-28T01:49:04.193Z,0
2017-03-28T01:50:13.804Z,0
2017-03-28T01:51:24.047Z,0
2017-03-28T01:52:33.976Z,0
2017-03-28T01:53:43.902Z,0
2017-03-28T01:54:54.145Z,0
2017-03-28T01:56:04.394Z,0
2017-03-28T01:57:14.632Z,0
2017-03-28T01:58:24.561Z,0
2017-03-28T01:59:34.489Z,0
2017-03-28T02:00:44.423Z,0
2017-03-28T02:01:54.666Z,0
2017-03-28T02:03:04.910Z,0
2017-03-28T02:04:15.168Z,0
2017-03-28T02:05:25.414Z,0
2017-03-28T02:06:35.657Z,0
2017-03-28T02:07:45.902Z,0
2017-03-28T02:08:56.154Z,0
2017-03-28T02:10:05.815Z,0
2017-03-28T02:11:16.057Z,0
2017-03-28T02:12:26.297Z,0
2017-03-28T02:13:35.913Z,0
2017-03-28T02:14:45.848Z,0
2017-03-28T02:15:55.786Z,0
2017-03-28T02:17:05.719Z,0
2017-03-28T02:18:15.661Z,0
2017-03-28T02:19:25.912Z,0
2017-03-28T02:20:35.535Z,0
2017-03-28T02:21:45.781Z,0
2017-03-28T02:22:56.028Z,0
2017-03-28T02:24:05.650Z,0
2017-03-28T02:25:15.584Z,0
2017-03-28T02:26:25.198Z,0
2017-03-28T02:27:35.447Z,0
2017-03-28T02:28:45.697Z,0
2017-03-28T02:29:55.644Z,0
2017-03-28T02:31:05.898Z,0
2017-03-28T02:32:16.165Z,0
2017-03-28T02:33:26.399Z,0
2017-03-28T02:34:36.647Z,0
2017-03-28T02:35:46.260Z,0
2017-03-28T02:36:56.189Z,0
2017-03-28T02:38:06.431Z,0
2017-03-28T02:39:16.675Z,0
2017-03-28T02:40:26.290Z,0
2017-03-28T02:41:35.906Z,0
2017-03-28T02:42:45.835Z,0
2017-03-28T02:43:55.792Z,0
2017-03-28T02:45:06.067Z,0
2017-03-28T02:46:16.305Z,0
2017-03-28T02:47:26.553Z,0
2017-03-28T02:48:36.496Z,0
2017-03-28T02:49:46.465Z,0
2017-03-28T02:50:56.389Z,0
2017-03-28T02:52:06.320Z,0
2017-03-28T02:53:16.255Z,0
2017-03-28T02:54:26.499Z,0
2017-03-28T02:55:36.423Z,0
2017-03-28T02:56:46.668Z,0
2017-03-28T02:57:56.907Z,0
2017-03-28T02:59:06.855Z,0
2017-03-28T03:00:17.108Z,0
2017-03-28T03:01:26.728Z,0
2017-03-28T03:02:36.986Z,0
2017-03-28T03:03:47.229Z,0
2017-03-28T03:04:57.484Z,0
2017-03-28T03:06:07.108Z,0
2017-03-28T03:07:16.727Z,0
2017-03-28T03:08:26.974Z,0
2017-03-28T03:09:37.221Z,0
2017-03-28T03:10:47.469Z,0
2017-03-28T03:11:57.392Z,0
2017-03-28T03:13:07.642Z,0
2017-03-28T03:14:17.897Z,0
2017-03-28T03:15:27.840Z,0
2017-03-28T03:16:38.093Z,0
2017-03-28T03:17:48.354Z,0
2017-03-28T03:18:58.288Z,0
2017-03-28T03:20:08.532Z,0
2017-03-28T03:21:18.768Z,0
2017-03-28T03:22:28.695Z,0
2017-03-28T03:23:38.625Z,0
2017-03-28T03:24:48.869Z,0
2017-03-28T03:25:58.802Z,0
2017-03-28T03:27:08.740Z,0
2017-03-28T03:28:18.987Z,0
2017-03-28T03:29:28.921Z,0
2017-03-28T03:30:38.855Z,0
2017-03-28T03:31:49.093Z,0
2017-03-28T03:32:59.334Z,0
2017-03-28T03:34:08.956Z,0
2017-03-28T03:35:19.196Z,0
2017-03-28T03:36:29.123Z,0
2017-03-28T03:37:39.373Z,0
2017-03-28T03:38:49.624Z,0
2017-03-28T03:39:59.555Z,0
2017-03-28T03:41:09.172Z,0
2017-03-28T03:42:19.414Z,0
2017-03-28T03:43:29.345Z,0
2017-03-28T03:44:39.585Z,0
2017-03-28T03:45:49.517Z,0
2017-03-28T03:46:59.454Z,0
2017-03-28T03:48:09.394Z,0
2017-03-28T03:49:19.645Z,0
2017-03-28T03:50:29.890Z,0
2017-03-28T03:51:40.133Z,0
2017-03-28T03:52:50.065Z,0
2017-03-28T03:54:00.312Z,0
2017-03-28T03:55:10.238Z,0
2017-03-28T03:56:20.171Z,0
2017-03-28T03:57:29.789Z,0
2017-03-28T03:58:40.038Z,0
2017-03-28T03:59:49.973Z,0
2017-03-28T04:01:00.219Z,0
2017-03-28T04:02:10.149Z,0
2017-03-28T04:03:19.471Z,0
2017-03-28T04:04:29.436Z,0
2017-03-28T04:05:39.358Z,0
2017-03-28T04:06:49.602Z,0
2017-03-28T04:07:59.861Z,0
2017-03-28T04:09:10.108Z,0
2017-03-28T04:10:20.049Z,0
2017-03-28T04:11:30.306Z,0
2017-03-28T04:12:40.235Z,0
2017-03-28T04:13:50.506Z,0
2017-03-28T04:15:00.452Z,0
2017-03-28T04:16:10.387Z,0
2017-03-28T04:17:20.631Z,0
2017-03-28T04:18:30.567Z,0
2017-03-28T04:19:40.809Z,0
2017-03-28T04:20:50.422Z,0
2017-03-28T04:22:00.346Z,0
2017-03-28T04:23:10.277Z,0
2017-03-28T04:24:20.219Z,0
2017-03-28T04:25:29.828Z,0
2017-03-28T04:26:40.072Z,0
2017-03-28T04:27:50.015Z,0
2017-03-28T04:29:00.261Z,0
2017-03-28T04:30:10.191Z,0
2017-03-28T04:31:20.440Z,0
2017-03-28T04:32:30.682Z,0
2017-03-28T04:33:40.650Z,0
2017-03-28T04:34:50.890Z,0
2017-03-28T04:36:01.140Z,0
2017-03-28T04:37:11.418Z,0
2017-03-28T04:38:21.367Z,0
2017-03-28T04:39:30.993Z,0
2017-03-28T04:40:40.919Z,0
2017-03-28T04:41:50.248Z,0
2017-03-28T04:43:00.183Z,0
2017-03-28T04:44:10.129Z,0
2017-03-28T04:45:19.435Z,0
2017-03-28T04:46:29.371Z,0
2017-03-28T04:47:39.306Z,0
2017-03-28T04:48:49.571Z,0
2017-03-28T04:49:59.194Z,0
2017-03-28T04:51:09.134Z,0
2017-03-28T04:52:19.377Z,0
2017-03-28T04:53:29.333Z,0
2017-03-28T04:54:39.271Z,0
2017-03-28T04:55:49.200Z,0
2017-03-28T04:56:59.445Z,0
2017-03-28T04:58:09.686Z,0
2017-03-28T04:59:19.616Z,0
2017-03-28T05:00:29.856Z,0
2017-03-28T05:01:39.783Z,0
2017-03-28T05:02:50.024Z,0
2017-03-28T05:04:00.272Z,0
2017-03-28T05:05:09.579Z,0
2017-03-28T05:06:19.508Z,0
2017-03-28T05:07:29.752Z,0
2017-03-28T05:08:39.383Z,0
2017-03-28T05:09:49.631Z,0
2017-03-28T05:10:59.874Z,0
2017-03-28T05:12:10.114Z,0
2017-03-28T05:13:19.416Z,0
2017-03-28T05:14:29.665Z,0
2017-03-28T05:15:39.904Z,0
2017-03-28T05:16:49.831Z,0
2017-03-28T05:18:00.090Z,0
2017-03-28T05:19:10.026Z,4
2017-03-28T05:20:20.263Z,4
2017-03-28T05:21:30.192Z,4
2017-03-28T05:22:40.127Z,4
2017-03-28T05:23:50.377Z,4
2017-03-28T05:25:00.313Z,4
2017-03-28T05:26:10.240Z,4
2017-03-28T05:27:20.197Z,4
2017-03-28T05:28:30.450Z,4
2017-03-28T05:29:40.695Z,4
2017-03-28T05:30:50.619Z,0
2017-03-28T05:32:00.870Z,0
2017-03-28T05:33:10.493Z,0
2017-03-28T05:34:20.421Z,0
2017-03-28T05:35:30.679Z,0
2017-03-28T05:36:40.926Z,0
2017-03-28T05:37:51.171Z,0
2017-03-28T05:39:01.107Z,0
2017-03-28T05:40:11.031Z,0
2017-03-28T05:41:20.960Z,0
2017-03-28T05:42:31.205Z,0
2017-03-28T05:43:41.153Z,0
2017-03-28T05:44:51.089Z,0
2017-03-28T05:46:01.329Z,0
2017-03-28T05:47:11.256Z,0
2017-03-28T05:48:21.190Z,0
2017-03-28T05:49:31.448Z,4
2017-03-28T05:50:41.683Z,4
2017-03-28T05:51:51.614Z,4
2017-03-28T05:53:00.917Z,4
2017-03-28T05:54:10.852Z,4
2017-03-28T05:55:20.788Z,4
2017-03-28T05:56:30.725Z,4
2017-03-28T05:57:40.662Z,4
2017-03-28T05:58:50.911Z,4
2017-03-28T06:00:00.847Z,4
2017-03-28T06:01:10.780Z,4
2017-03-28T06:02:20.711Z,4
2017-03-28T06:03:30.963Z,4
2017-03-28T06:04:41.207Z,0
2017-03-28T06:05:51.450Z,0
2017-03-28T06:07:01.700Z,0
2017-03-28T06:08:11.311Z,0
2017-03-28T06:09:21.566Z,0
2017-03-28T06:10:31.509Z,0
2017-03-28T06:11:41.119Z,0
2017-03-28T06:12:50.744Z,0
2017-03-28T06:14:01.004Z,4
2017-03-28T06:15:10.306Z,4
2017-03-28T06:16:20.552Z,4
2017-03-28T06:17:30.798Z,4
2017-03-28T06:18:41.051Z,4
2017-03-28T06:19:50.981Z,4
2017-03-28T06:21:01.227Z,4
2017-03-28T06:22:11.468Z,4
2017-03-28T06:23:21.724Z,4
2017-03-28T06:24:31.966Z,4
2017-03-28T06:25:42.211Z,4
2017-03-28T06:26:52.458Z,4
2017-03-28T06:28:02.704Z,4
2017-03-28T06:29:12.334Z,4
2017-03-28T06:30:21.957Z,4
2017-03-28T06:31:31.926Z,4
2017-03-28T06:32:42.167Z,4
2017-03-28T06:33:52.410Z,4
2017-03-28T06:35:02.654Z,4
2017-03-28T06:36:12.587Z,4
2017-03-28T06:37:22.209Z,4
2017-03-28T06:38:31.524Z,4
2017-03-28T06:39:41.144Z,4
2017-03-28T06:40:51.390Z,4
2017-03-28T06:42:01.633Z,4
2017-03-28T06:43:11.873Z,4
2017-03-28T06:44:22.121Z,4
2017-03-28T06:45:32.363Z,4
2017-03-28T06:46:42.292Z,4
2017-03-28T06:47:52.229Z,4
2017-03-28T06:49:02.170Z,4
2017-03-28T06:50:12.424Z,4
2017-03-28T06:51:22.673Z,8
2017-03-28T06:52:31.973Z,8
2017-03-28T06:53:42.209Z,8
2017-03-28T06:54:52.452Z,4
2017-03-28T06:56:02.385Z,4
2017-03-28T06:57:12.625Z,4
2017-03-28T06:58:22.867Z,4
2017-03-28T06:59:33.110Z,4
2017-03-28T07:00:43.358Z,4
2017-03-28T07:01:52.977Z,4
2017-03-28T07:03:02.592Z,4
2017-03-28T07:04:12.221Z,4
2017-03-28T07:05:22.466Z,4
2017-03-28T07:06:32.392Z,4
2017-03-28T07:07:42.641Z,4
2017-03-28T07:08:52.890Z,4
2017-03-28T07:10:03.131Z,4
2017-03-28T07:11:13.059Z,4
2017-03-28T07:12:22.986Z,8
2017-03-28T07:13:33.231Z,8
2017-03-28T07:14:43.184Z,8
2017-03-28T07:15:53.119Z,8
2017-03-28T07:17:02.734Z,8
2017-03-28T07:18:12.675Z,8
2017-03-28T07:19:21.666Z,4
2017-03-28T07:20:31.907Z,4
2017-03-28T07:21:41.834Z,4
2017-03-28T07:22:52.077Z,4
2017-03-28T07:24:02.017Z,4
2017-03-28T07:25:11.324Z,4
2017-03-28T07:26:21.258Z,4
2017-03-28T07:27:30.872Z,4
2017-03-28T07:28:41.119Z,4
2017-03-28T07:29:51.358Z,4
2017-03-28T07:31:01.299Z,8
2017-03-28T07:32:11.540Z,8
2017-03-28T07:33:21.155Z,4
2017-03-28T07:34:31.086Z,8
2017-03-28T07:35:41.024Z,8
2017-03-28T07:36:51.263Z,8
2017-03-28T07:38:01.511Z,8
2017-03-28T07:39:11.132Z,8
2017-03-28T07:40:21.068Z,8
2017-03-28T07:41:31.310Z,8
2017-03-28T07:42:41.245Z,8
2017-03-28T07:43:50.551Z,8
2017-03-28T07:45:00.794Z,4
2017-03-28T07:46:10.097Z,4
2017-03-28T07:47:20.337Z,4
2017-03-28T07:48:30.580Z,4
2017-03-28T07:49:40.504Z,8
2017-03-28T07:50:50.431Z,4
2017-03-28T07:52:00.364Z,8
2017-03-28T07:53:10.637Z,8
2017-03-28T07:54:20.874Z,20
2017-03-28T07:55:31.120Z,28
2017-03-28T07:56:41.369Z,36
2017-03-28T07:57:51.294Z,52
2017-03-28T07:59:01.530Z,60
2017-03-28T08:00:11.774Z,68
2017-03-28T08:01:22.016Z,72
2017-03-28T08:02:31.634Z,76
2017-03-28T08:03:41.571Z,80
2017-03-28T08:04:51.491Z,84
2017-03-28T08:06:01.421Z,84
2017-03-28T08:07:11.658Z,84
2017-03-28T08:08:21.587Z,80
2017-03-28T08:09:31.825Z,80
2017-03-28T08:10:41.445Z,80
2017-03-28T08:11:51.385Z,80
2017-03-28T08:13:01.317Z,80
2017-03-28T08:14:11.252Z,76
2017-03-28T08:15:20.875Z,76
2017-03-28T08:16:30.805Z,72
2017-03-28T08:17:40.743Z,76
2017-03-28T08:18:50.688Z,76
2017-03-28T08:20:00.620Z,72
2017-03-28T08:21:10.549Z,68
2017-03-28T08:22:20.476Z,72
2017-03-28T08:23:30.712Z,68
2017-03-28T08:24:40.636Z,68
2017-03-28T08:25:50.878Z,68
2017-03-28T08:27:00.805Z,68
2017-03-28T08:28:11.044Z,64
2017-03-28T08:29:21.317Z,64
2017-03-28T08:30:31.250Z,64
2017-03-28T08:31:41.489Z,60
2017-03-28T08:32:51.739Z,64
2017-03-28T08:34:01.989Z,60
2017-03-28T08:35:12.226Z,60
2017-03-28T08:36:21.534Z,60
2017-03-28T08:37:31.774Z,60
2017-03-28T08:38:41.701Z,56
2017-03-28T08:39:51.943Z,56
2017-03-28T08:41:01.870Z,56
2017-03-28T08:42:11.511Z,56
2017-03-28T08:43:21.448Z,56
2017-03-28T08:44:31.381Z,56
2017-03-28T08:45:41.311Z,52
2017-03-28T08:46:51.551Z,52
2017-03-28T08:48:01.808Z,48
2017-03-28T08:49:11.745Z,48
2017-03-28T08:50:21.997Z,48
2017-03-28T08:51:32.254Z,48
2017-03-28T08:52:42.189Z,48
2017-03-28T08:53:52.119Z,48
2017-03-28T08:55:02.050Z,48
2017-03-28T08:56:11.982Z,44
2017-03-28T08:57:22.238Z,44
2017-03-28T08:58:32.482Z,44
2017-03-28T08:59:42.422Z,44
2017-03-28T09:00:52.664Z,44
2017-03-28T09:02:02.273Z,40
2017-03-28T09:03:11.890Z,40
2017-03-28T09:04:21.820Z,40
2017-03-28T09:05:31.751Z,36
2017-03-28T09:06:41.684Z,36
2017-03-28T09:07:51.618Z,40
2017-03-28T09:09:01.864Z,40
2017-03-28T09:10:11.502Z,36
2017-03-28T09:11:21.432Z,36
2017-03-28T09:12:31.683Z,36
2017-03-28T09:13:41.621Z,36
2017-03-28T09:14:51.246Z,32
2017-03-28T09:16:00.860Z,32
2017-03-28T09:17:11.104Z,32
2017-03-28T09:18:21.037Z,32
2017-03-28T09:19:30.974Z,32
2017-03-28T09:20:40.903Z,32
2017-03-28T09:21:50.831Z,32
2017-03-28T09:23:01.071Z,32
2017-03-28T09:24:10.697Z,28
2017-03-28T09:25:20.627Z,32
2017-03-28T09:26:30.246Z,28
2017-03-28T09:27:39.867Z,28
2017-03-28T09:28:49.801Z,32
2017-03-28T09:30:00.053Z,28
2017-03-28T09:31:10.308Z,28
2017-03-28T09:32:20.241Z,24
2017-03-28T09:33:30.481Z,28
2017-03-28T09:34:40.723Z,24
2017-03-28T09:35:50.971Z,24
2017-03-28T09:37:01.218Z,24
2017-03-28T09:38:11.465Z,24
2017-03-28T09:39:21.096Z,28
2017-03-28T09:40:31.346Z,24
2017-03-28T09:41:40.965Z,28
2017-03-28T09:42:51.205Z,24
2017-03-28T09:44:00.512Z,24
2017-03-28T09:45:10.446Z,24
2017-03-28T09:46:20.064Z,28
2017-03-28T09:47:30.002Z,24
2017-03-28T09:48:39.936Z,28
2017-03-28T09:49:49.558Z,20
2017-03-28T09:50:59.495Z,20
2017-03-28T09:52:09.751Z,24
2017-03-28T09:53:19.682Z,24
2017-03-28T09:54:29.626Z,20
2017-03-28T09:55:39.865Z,24
2017-03-28T09:56:49.792Z,20
2017-03-28T09:57:59.729Z,20
2017-03-28T09:59:09.971Z,20
2017-03-28T10:00:20.209Z,20
2017-03-28T10:01:30.170Z,20
2017-03-28T10:02:40.097Z,20
2017-03-28T10:03:50.347Z,20
2017-03-28T10:04:59.963Z,16
2017-03-28T10:06:10.213Z,20
2017-03-28T10:07:19.833Z,16
2017-03-28T10:08:29.763Z,20
2017-03-28T10:09:40.011Z,16
2017-03-28T10:10:49.632Z,20
2017-03-28T10:11:59.874Z,20
2017-03-28T10:13:09.796Z,20
2017-03-28T10:14:19.417Z,16
2017-03-28T10:15:28.724Z,16
2017-03-28T10:16:38.968Z,20
2017-03-28T10:17:48.905Z,16
2017-03-28T10:18:58.840Z,16
2017-03-28T10:20:09.082Z,16
2017-03-28T10:21:18.707Z,16
2017-03-28T10:22:28.690Z,16
2017-03-28T10:23:38.929Z,16
2017-03-28T10:24:48.855Z,16
2017-03-28T10:25:59.094Z,16
2017-03-28T10:27:09.036Z,16
2017-03-28T10:28:19.282Z,12
2017-03-28T10:29:28.909Z,12
2017-03-28T10:30:38.840Z,12
2017-03-28T10:31:48.770Z,16
2017-03-28T10:32:58.700Z,16
2017-03-28T10:34:08.949Z,16
2017-03-28T10:35:18.881Z,12
2017-03-28T10:36:28.810Z,12
2017-03-28T10:37:39.052Z,16
2017-03-28T10:38:49.299Z,16
2017-03-28T10:39:59.551Z,12
2017-03-28T10:41:09.189Z,12
2017-03-28T10:42:19.130Z,12
2017-03-28T10:43:29.374Z,16
2017-03-28T10:44:38.990Z,12
2017-03-28T10:45:49.233Z,16
2017-03-28T10:46:59.482Z,12
2017-03-28T10:48:08.807Z,12
2017-03-28T10:49:19.051Z,16
2017-03-28T10:50:28.976Z,16
2017-03-28T10:51:38.906Z,12
2017-03-28T10:52:49.153Z,12
2017-03-28T10:53:59.400Z,12
2017-03-28T10:55:09.648Z,12
2017-03-28T10:56:19.578Z,12
2017-03-28T10:57:29.508Z,12
2017-03-28T10:58:39.762Z,12
2017-03-28T10:59:49.694Z,12
2017-03-28T11:00:59.622Z,12
2017-03-28T11:02:09.865Z,12
2017-03-28T11:03:19.534Z,12
2017-03-28T11:04:29.466Z,12
2017-03-28T11:05:39.730Z,12
2017-03-28T11:06:49.654Z,12
2017-03-28T11:07:59.584Z,8
2017-03-28T11:09:09.835Z,8
2017-03-28T11:10:20.093Z,8
2017-03-28T11:11:30.033Z,12
2017-03-28T11:12:40.279Z,12
2017-03-28T11:13:50.226Z,12
2017-03-28T11:15:00.494Z,12
2017-03-28T11:16:10.104Z,12
2017-03-28T11:17:20.344Z,12
2017-03-28T11:18:30.269Z,12
2017-03-28T11:19:40.229Z,12
2017-03-28T11:20:50.159Z,12
2017-03-28T11:22:00.406Z,12
2017-03-28T11:23:10.658Z,12
2017-03-28T11:24:19.964Z,12
2017-03-28T11:25:29.588Z,12
2017-03-28T11:26:39.867Z,12
2017-03-28T11:27:50.111Z,8
2017-03-28T11:29:00.359Z,8
2017-03-28T11:30:10.290Z,8
2017-03-28T11:31:20.535Z,8
2017-03-28T11:32:30.464Z,8
2017-03-28T11:33:40.712Z,8
2017-03-28T11:34:50.644Z,8
2017-03-28T11:36:00.578Z,8
2017-03-28T11:37:10.816Z,8
2017-03-28T11:38:21.088Z,12
2017-03-28T11:39:31.028Z,12
2017-03-28T11:40:40.964Z,8
2017-03-28T11:41:50.921Z,8
2017-03-28T11:43:01.167Z,8
2017-03-28T11:44:11.105Z,12
2017-03-28T11:45:20.720Z,8
2017-03-28T11:46:30.335Z,8
2017-03-28T11:47:40.581Z,8
2017-03-28T11:48:50.834Z,12
2017-03-28T11:50:01.077Z,12
2017-03-28T11:51:10.688Z,12
2017-03-28T11:52:20.952Z,8
2017-03-28T11:53:30.892Z,8
2017-03-28T11:54:40.508Z,8
2017-03-28T11:55:50.754Z,8
2017-03-28T11:57:00.373Z,8
2017-03-28T11:58:10.621Z,8
2017-03-28T11:59:20.554Z,8
2017-03-28T12:00:30.796Z,8
2017-03-28T12:01:40.760Z,8
2017-03-28T12:02:51.010Z,8
2017-03-28T12:04:01.256Z,12
2017-03-28T12:05:11.501Z,8
2017-03-28T12:06:21.740Z,8
2017-03-28T12:07:31.668Z,8
2017-03-28T12:08:41.600Z,8
2017-03-28T12:09:51.528Z,8
2017-03-28T12:11:01.763Z,12
2017-03-28T12:12:11.063Z,8
2017-03-28T12:13:20.692Z,8
2017-03-28T12:14:30.942Z,8
2017-03-28T12:15:40.869Z,12
2017-03-28T12:16:50.814Z,8
2017-03-28T12:18:01.054Z,12
2017-03-28T12:19:11.297Z,12
2017-03-28T12:20:21.549Z,12
2017-03-28T12:21:31.821Z,8
2017-03-28T12:22:41.435Z,12
2017-03-28T12:23:51.365Z,12
2017-03-28T12:25:01.299Z,12
2017-03-28T12:26:11.537Z,12
2017-03-28T12:27:21.778Z,12
2017-03-28T12:28:32.023Z,12
2017-03-28T12:29:41.957Z,12
2017-03-28T12:30:51.881Z,12
2017-03-28T12:32:02.126Z,12
2017-03-28T12:33:12.062Z,12
2017-03-28T12:34:21.988Z,12
2017-03-28T12:35:31.601Z,12
2017-03-28T12:36:41.841Z,8
2017-03-28T12:37:51.775Z,12
2017-03-28T12:39:01.700Z,12
2017-03-28T12:40:11.001Z,12
2017-03-28T12:41:20.659Z,12
2017-03-28T12:42:30.931Z,12
2017-03-28T12:43:41.173Z,12
2017-03-28T12:44:51.466Z,12
2017-03-28T12:46:01.713Z,12
2017-03-28T12:47:11.986Z,16
2017-03-28T12:48:21.914Z,12
2017-03-28T12:49:31.532Z,12
2017-03-28T12:50:41.152Z,12
2017-03-28T12:51:51.421Z,12
2017-03-28T12:53:01.358Z,16
2017-03-28T12:54:10.975Z,16
2017-03-28T12:55:21.217Z,12
2017-03-28T12:56:31.465Z,12
2017-03-28T12:57:41.394Z,12
2017-03-28T12:58:51.645Z,12
2017-03-28T13:00:01.564Z,12
2017-03-28T13:01:11.808Z,12
2017-03-28T13:02:22.057Z,12
2017-03-28T13:03:31.671Z,16
2017-03-28T13:04:41.913Z,16
2017-03-28T13:05:51.844Z,16
2017-03-28T13:07:01.776Z,16
2017-03-28T13:08:12.020Z,16
2017-03-28T13:09:21.638Z,16
2017-03-28T13:10:31.566Z,12
2017-03-28T13:11:41.184Z,16
2017-03-28T13:12:50.495Z,16
2017-03-28T13:14:00.741Z,16
2017-03-28T13:15:10.051Z,12
2017-03-28T13:16:20.293Z,16
2017-03-28T13:17:30.543Z,16
2017-03-28T13:18:40.168Z,12
2017-03-28T13:19:50.409Z,16
2017-03-28T13:21:00.660Z,16
2017-03-28T13:22:11.206Z,16
2017-03-28T13:23:21.457Z,16
2017-03-28T13:24:31.388Z,16
2017-03-28T13:25:41.651Z,16
2017-03-28T13:26:51.585Z,16
2017-03-28T13:28:01.515Z,16
2017-03-28T13:29:11.756Z,16
2017-03-28T13:30:21.366Z,16
2017-03-28T13:31:31.305Z,16
2017-03-28T13:32:41.558Z,16
2017-03-28T13:33:52.027Z,16
2017-03-28T13:35:01.956Z,16
2017-03-28T13:36:11.918Z,16
2017-03-28T13:37:21.846Z,20
2017-03-28T13:38:31.769Z,16
2017-03-28T13:39:41.708Z,16
2017-03-28T13:40:51.952Z,16
2017-03-28T13:42:01.568Z,16
2017-03-28T13:43:11.809Z,16
2017-03-28T13:44:21.423Z,16
2017-03-28T13:45:31.666Z,16
2017-03-28T13:46:41.297Z,16
2017-03-28T13:47:51.222Z,16
2017-03-28T13:49:01.458Z,16
2017-03-28T13:50:11.700Z,20
2017-03-28T13:51:21.634Z,20
2017-03-28T13:52:31.876Z,16
2017-03-28T13:53:42.115Z,16
2017-03-28T13:54:52.043Z,20
2017-03-28T13:56:02.285Z,20
2017-03-28T13:57:12.526Z,20
2017-03-28T13:58:22.453Z,20
2017-03-28T13:59:32.374Z,20
2017-03-28T14:00:41.988Z,16
2017-03-28T14:01:51.917Z,20
2017-03-28T14:03:01.527Z,20
2017-03-28T14:04:11.457Z,20
2017-03-28T14:05:21.699Z,20
2017-03-28T14:06:31.317Z,16
2017-03-28T14:07:41.255Z,20
2017-03-28T14:08:51.501Z,20
2017-03-28T14:10:01.740Z,16
2017-03-28T14:11:11.985Z,16
2017-03-28T14:12:22.229Z,16
2017-03-28T14:13:32.470Z,16
2017-03-28T14:14:42.391Z,16
2017-03-28T14:15:52.322Z,20
2017-03-28T14:17:02.582Z,20
2017-03-28T14:18:12.513Z,20
2017-03-28T14:19:22.746Z,20
2017-03-28T14:20:32.673Z,20
2017-03-28T14:21:42.606Z,16
2017-03-28T14:22:52.531Z,20
2017-03-28T14:24:02.464Z,16
2017-03-28T14:25:12.397Z,20
2017-03-28T14:26:21.714Z,20
2017-03-28T14:27:31.956Z,20
2017-03-28T14:28:41.887Z,20
2017-03-28T14:29:52.130Z,20
2017-03-28T14:31:02.375Z,16
2017-03-28T14:32:12.300Z,16
2017-03-28T14:33:22.545Z,16
2017-03-28T14:34:32.471Z,16
2017-03-28T14:35:42.400Z,16
2017-03-28T14:36:52.654Z,12
2017-03-28T14:38:02.897Z,16
2017-03-28T14:39:13.138Z,16
2017-03-28T14:40:23.062Z,16
2017-03-28T14:41:32.988Z,16
2017-03-28T14:42:42.604Z,16
2017-03-28T14:43:52.851Z,16
2017-03-28T14:45:02.789Z,12
2017-03-28T14:46:13.032Z,16
2017-03-28T14:47:22.970Z,16
2017-03-28T14:48:33.208Z,16
2017-03-28T14:49:43.452Z,12
2017-03-28T14:50:53.385Z,12
2017-03-28T14:52:03.625Z,12
2017-03-28T14:53:13.863Z,12
2017-03-28T14:54:24.105Z,16
2017-03-28T14:55:34.040Z,12
2017-03-28T14:56:44.290Z,12
2017-03-28T14:57:53.904Z,8
2017-03-28T14:59:03.519Z,12
2017-03-28T15:00:13.437Z,12
2017-03-28T15:01:23.706Z,16
2017-03-28T15:02:33.642Z,16
2017-03-28T15:03:43.565Z,12
2017-03-28T15:04:53.493Z,12
2017-03-28T15:06:03.420Z,12
2017-03-28T15:07:13.033Z,12
2017-03-28T15:08:23.268Z,12
2017-03-28T15:09:33.508Z,8
2017-03-28T15:10:43.744Z,12
2017-03-28T15:11:53.684Z,12
2017-03-28T15:13:03.621Z,12
2017-03-28T15:14:13.865Z,12
2017-03-28T15:15:24.106Z,8
2017-03-28T15:16:34.042Z,12
2017-03-28T15:17:44.282Z,12
2017-03-28T15:18:54.533Z,8
2017-03-28T15:20:04.781Z,12
2017-03-28T15:21:15.025Z,12
2017-03-28T15:22:24.642Z,8
2017-03-28T15:23:34.255Z,8
2017-03-28T15:24:44.497Z,12
2017-03-28T15:25:54.742Z,12
2017-03-28T15:27:04.995Z,8
2017-03-28T15:28:14.923Z,8
2017-03-28T15:29:25.172Z,12
2017-03-28T15:30:35.161Z,8
2017-03-28T15:31:45.096Z,8
2017-03-28T15:32:55.330Z,12
2017-03-28T15:34:05.568Z,12
2017-03-28T15:35:15.809Z,8
2017-03-28T15:36:25.732Z,8
2017-03-28T15:37:35.663Z,8
2017-03-28T15:38:44.966Z,8
2017-03-28T15:39:54.892Z,8
2017-03-28T15:41:04.819Z,8
2017-03-28T15:42:14.436Z,8
2017-03-28T15:43:24.667Z,8
2017-03-28T15:44:34.597Z,8
2017-03-28T15:45:44.539Z,8
2017-03-28T15:46:54.782Z,8
2017-03-28T15:48:05.064Z,8
2017-03-28T15:49:14.993Z,8
2017-03-28T15:50:24.609Z,4
2017-03-28T15:51:34.860Z,8
2017-03-28T15:52:45.145Z,8
2017-03-28T15:53:55.383Z,4
2017-03-28T15:55:05.624Z,4
2017-03-28T15:56:15.873Z,4
2017-03-28T15:57:26.114Z,8
2017-03-28T15:58:36.354Z,4
2017-03-28T15:59:46.280Z,8
2017-03-28T16:00:56.524Z,4
2017-03-28T16:02:06.770Z,4
2017-03-28T16:03:17.006Z,4
2017-03-28T16:04:26.929Z,4
2017-03-28T16:05:36.856Z,4
2017-03-28T16:06:46.468Z,4
2017-03-28T16:07:56.707Z,4
2017-03-28T16:09:06.636Z,4
2017-03-28T16:10:16.878Z,4
2017-03-28T16:11:27.125Z,0
2017-03-28T16:12:37.062Z,4
2017-03-28T16:13:47.306Z,4
2017-03-28T16:14:57.236Z,4
2017-03-28T16:16:07.166Z,4
2017-03-28T16:17:17.108Z,4
2017-03-28T16:18:27.346Z,4
2017-03-28T16:19:37.273Z,0
2017-03-28T16:20:47.203Z,0
2017-03-28T16:21:56.830Z,4
2017-03-28T16:23:06.770Z,4
2017-03-28T16:24:17.003Z,4
2017-03-28T16:25:27.242Z,4
2017-03-28T16:26:37.175Z,4
2017-03-28T16:27:47.415Z,4
2017-03-28T16:28:57.656Z,0
2017-03-28T16:30:07.891Z,0
2017-03-28T16:31:17.820Z,0
2017-03-28T16:32:28.060Z,4
2017-03-28T16:33:38.298Z,4
2017-03-28T16:34:48.546Z,4
2017-03-28T16:35:58.474Z,4
2017-03-28T16:37:08.717Z,4
2017-03-28T16:38:18.965Z,0
2017-03-28T16:39:28.895Z,0
2017-03-28T16:40:38.831Z,0
2017-03-28T16:41:48.756Z,0
2017-03-28T16:42:58.058Z,0
2017-03-28T16:44:08.303Z,0
2017-03-28T16:45:18.232Z,0
2017-03-28T16:46:28.478Z,4
2017-03-28T16:47:38.718Z,4
2017-03-28T16:48:48.973Z,4
2017-03-28T16:49:59.214Z,4
2017-03-28T16:51:09.148Z,4
2017-03-28T16:52:18.760Z,0
2017-03-28T16:53:28.691Z,0
2017-03-28T16:54:38.931Z,0
2017-03-28T16:55:48.548Z,0
2017-03-28T16:56:58.786Z,0
2017-03-28T16:58:09.028Z,4
2017-03-28T16:59:19.261Z,4
2017-03-28T17:00:29.188Z,4